チュニス・カルタゴ国際空港の過去48時間の天気

チュニス・カルタゴ国際空港 (Tunis-Carthage)

現在時刻: 9/16 04:05 CET (9/16 03:05 UTC) 以下の時間は現地時間です。

過去48時間のMETAR気象情報
時間 風向 風速(m/s) 視程 気温(℃) 湿度(%) 気圧(hPa) 天気現象
16 03:30 - - 10km以上 25 61 1017
16 03:00 南南東 4 10km以上 25 61 1017
16 02:30 南南東 5 10km以上 25 57 1017
16 02:00 南南東 5 10km以上 26 54 1018
16 01:30 南南東 3 10km以上 26 58 1018
16 01:00 南南東 3 10km以上 26 58 1018
16 00:30 東南東 2 10km以上 25 69 1018
16 00:00 東南東 3 10km以上 26 70 1018
15 23:30 東南東 3 10km以上 26 70 1018
15 23:00 東南東 3 10km以上 26 70 1019
15 22:30 東南東 3 10km以上 26 70 1019
15 22:00 東南東 3 10km以上 26 70 1019
15 21:30 東南東 3 10km以上 26 70 1019
15 21:00 東南東 4 10km以上 26 70 1020
15 20:30 東南東 4 10km以上 27 66 1019
DTTA 160230Z 16P0>KT 9999 FEW033 25/17 Q1017
DTTA 160200Z 15008KT 120V180 9999 FEW033 25/17 Q1017
DTTA 160130Z 16010KT 9999 FEW033 25/16 Q1017
DTTA 160100Z 16009KT 9999 FEW033 26/16 Q1018
DTTA 160030Z 16006KT 9999 FEW033 26/17 Q1018
DTTA 160000Z 16006KT 9999 FEW033 26/17 Q1018
DTTA 152330Z 12003KT 040V150 9999 FEW033 25/19 Q1018
DTTA 152300Z 12005KT 070V150 9999 FEW033 26/20 Q1018
DTTA 152230Z 12006KT 070V150 9999 FEW033 26/20 Q1018
DTTA 152200Z 11006KT 060V170 9999 FEW033 26/20 Q1019
DTTA 152130Z 11006KT 080V150 9999 FEW033 26/20 Q1019
DTTA 152100Z 11005KT 060V160 9999 FEW033 26/20 Q1019
DTTA 152030Z 12006KT 060V160 9999 FEW033 26/20 Q1019
DTTA 152000Z 12007KT 070V150 9999 FEW033 26/20 Q1020
DTTA 151930Z 11007KT 050V160 9999 FEW033 27/20 Q1019